sensor_id;sensor_type;location;lat;lon;timestamp;P1;durP1;ratioP1;P2;durP2;ratioP2
27225;SDS011;14732;51.074;3.788;2023-02-19T00:01:21;25.17;;;12.73;;
27225;SDS011;14732;51.074;3.788;2023-02-19T00:03:49;20.38;;;11.52;;
27225;SDS011;14732;51.074;3.788;2023-02-19T00:06:17;18.77;;;10.27;;
27225;SDS011;14732;51.074;3.788;2023-02-19T00:08:43;19.63;;;10.35;;
27225;SDS011;14732;51.074;3.788;2023-02-19T00:11:13;19.92;;;9.50;;
27225;SDS011;14732;51.074;3.788;2023-02-19T00:13:41;16.85;;;8.70;;
27225;SDS011;14732;51.074;3.788;2023-02-19T00:16:54;20.42;;;8.75;;
27225;SDS011;14732;51.074;3.788;2023-02-19T00:18:56;14.93;;;7.78;;
27225;SDS011;14732;51.074;3.788;2023-02-19T00:21:23;13.63;;;7.82;;
27225;SDS011;14732;51.074;3.788;2023-02-19T00:23:50;14.98;;;7.60;;
27225;SDS011;14732;51.074;3.788;2023-02-19T00:26:17;15.93;;;7.50;;
27225;SDS011;14732;51.074;3.788;2023-02-19T00:28:43;14.65;;;6.43;;
27225;SDS011;14732;51.074;3.788;2023-02-19T00:31:18;18.67;;;6.88;;
27225;SDS011;14732;51.074;3.788;2023-02-19T00:33:44;14.07;;;5.75;;
27225;SDS011;14732;51.074;3.788;2023-02-19T00:36:11;12.57;;;5.00;;
27225;SDS011;14732;51.074;3.788;2023-02-19T00:38:38;10.18;;;5.35;;
27225;SDS011;14732;51.074;3.788;2023-02-19T00:41:05;12.35;;;5.22;;
27225;SDS011;14732;51.074;3.788;2023-02-19T00:43:47;10.73;;;4.88;;
27225;SDS011;14732;51.074;3.788;2023-02-19T00:46:22;10.35;;;4.55;;
27225;SDS011;14732;51.074;3.788;2023-02-19T00:48:49;15.27;;;5.28;;
27225;SDS011;14732;51.074;3.788;2023-02-19T00:51:16;11.68;;;4.60;;
27225;SDS011;14732;51.074;3.788;2023-02-19T00:53:43;10.52;;;4.03;;
27225;SDS011;14732;51.074;3.788;2023-02-19T00:56:09;11.00;;;4.00;;
27225;SDS011;14732;51.074;3.788;2023-02-19T00:58:35;13.02;;;3.97;;
27225;SDS011;14732;51.074;3.788;2023-02-19T01:01:01;13.45;;;3.60;;
27225;SDS011;14732;51.074;3.788;2023-02-19T01:03:27;12.63;;;3.22;;
27225;SDS011;14732;51.074;3.788;2023-02-19T01:05:53;10.15;;;4.10;;
27225;SDS011;14732;51.074;3.788;2023-02-19T01:08:19;12.82;;;3.60;;
27225;SDS011;14732;51.074;3.788;2023-02-19T01:10:45;10.15;;;2.97;;
27225;SDS011;14732;51.074;3.788;2023-02-19T01:13:11;13.07;;;3.22;;
27225;SDS011;14732;51.074;3.788;2023-02-19T01:15:37;10.98;;;3.92;;
27225;SDS011;14732;51.074;3.788;2023-02-19T01:18:02;8.77;;;3.25;;
27225;SDS011;14732;51.074;3.788;2023-02-19T01:20:28;8.18;;;2.92;;
27225;SDS011;14732;51.074;3.788;2023-02-19T01:22:54;10.90;;;2.95;;
27225;SDS011;14732;51.074;3.788;2023-02-19T01:25:19;11.30;;;3.33;;
27225;SDS011;14732;51.074;3.788;2023-02-19T01:27:45;14.38;;;3.58;;
27225;SDS011;14732;51.074;3.788;2023-02-19T01:30:11;10.68;;;3.20;;
27225;SDS011;14732;51.074;3.788;2023-02-19T01:32:37;10.35;;;2.78;;
27225;SDS011;14732;51.074;3.788;2023-02-19T01:35:03;8.23;;;2.67;;
27225;SDS011;14732;51.074;3.788;2023-02-19T01:37:29;6.28;;;2.50;;
27225;SDS011;14732;51.074;3.788;2023-02-19T01:39:55;9.20;;;2.53;;
27225;SDS011;14732;51.074;3.788;2023-02-19T01:42:21;9.57;;;2.63;;
27225;SDS011;14732;51.074;3.788;2023-02-19T01:47:12;8.23;;;2.35;;
27225;SDS011;14732;51.074;3.788;2023-02-19T01:49:45;9.52;;;2.70;;
27225;SDS011;14732;51.074;3.788;2023-02-19T01:52:17;10.85;;;2.83;;
27225;SDS011;14732;51.074;3.788;2023-02-19T01:54:49;11.80;;;2.55;;
27225;SDS011;14732;51.074;3.788;2023-02-19T01:57:18;12.02;;;2.70;;
27225;SDS011;14732;51.074;3.788;2023-02-19T01:59:47;12.23;;;2.95;;
27225;SDS011;14732;51.074;3.788;2023-02-19T02:02:17;9.85;;;2.63;;
27225;SDS011;14732;51.074;3.788;2023-02-19T02:04:42;13.45;;;2.72;;
27225;SDS011;14732;51.074;3.788;2023-02-19T02:07:08;9.90;;;2.25;;
27225;SDS011;14732;51.074;3.788;2023-02-19T02:09:53;10.05;;;2.00;;
27225;SDS011;14732;51.074;3.788;2023-02-19T02:12:39;9.00;;;2.60;;
27225;SDS011;14732;51.074;3.788;2023-02-19T02:15:05;10.88;;;2.65;;
27225;SDS011;14732;51.074;3.788;2023-02-19T02:31:04;12.05;;;2.10;;
27225;SDS011;14732;51.074;3.788;2023-02-19T02:33:52;10.93;;;2.33;;
27225;SDS011;14732;51.074;3.788;2023-02-19T02:36:35;12.38;;;2.33;;
27225;SDS011;14732;51.074;3.788;2023-02-19T02:39:04;11.18;;;1.98;;
27225;SDS011;14732;51.074;3.788;2023-02-19T02:41:39;11.88;;;2.28;;
27225;SDS011;14732;51.074;3.788;2023-02-19T02:44:09;10.98;;;2.50;;
27225;SDS011;14732;51.074;3.788;2023-02-19T02:46:36;9.82;;;2.25;;
27225;SDS011;14732;51.074;3.788;2023-02-19T02:49:05;13.30;;;2.45;;
27225;SDS011;14732;51.074;3.788;2023-02-19T02:51:37;12.02;;;2.67;;
27225;SDS011;14732;51.074;3.788;2023-02-19T02:54:20;10.90;;;2.25;;
27225;SDS011;14732;51.074;3.788;2023-02-19T02:57:07;12.20;;;2.15;;
27225;SDS011;14732;51.074;3.788;2023-02-19T02:59:38;12.23;;;2.33;;
27225;SDS011;14732;51.074;3.788;2023-02-19T03:02:15;13.52;;;2.35;;
27225;SDS011;14732;51.074;3.788;2023-02-19T03:07:49;13.57;;;2.40;;
27225;SDS011;14732;51.074;3.788;2023-02-19T03:10:17;11.02;;;1.90;;
27225;SDS011;14732;51.074;3.788;2023-02-19T03:12:49;18.02;;;2.67;;
27225;SDS011;14732;51.074;3.788;2023-02-19T03:15:38;8.98;;;2.20;;
27225;SDS011;14732;51.074;3.788;2023-02-19T03:18:27;13.02;;;2.25;;
27225;SDS011;14732;51.074;3.788;2023-02-19T03:21:14;12.93;;;2.78;;
27225;SDS011;14732;51.074;3.788;2023-02-19T03:23:42;14.48;;;2.47;;
27225;SDS011;14732;51.074;3.788;2023-02-19T03:26:29;10.52;;;2.20;;
27225;SDS011;14732;51.074;3.788;2023-02-19T03:28:57;13.27;;;2.20;;
27225;SDS011;14732;51.074;3.788;2023-02-19T03:31:44;12.02;;;2.45;;
27225;SDS011;14732;51.074;3.788;2023-02-19T03:34:13;13.20;;;2.28;;
27225;SDS011;14732;51.074;3.788;2023-02-19T03:36:43;10.35;;;2.25;;
27225;SDS011;14732;51.074;3.788;2023-02-19T03:39:14;13.38;;;2.22;;
27225;SDS011;14732;51.074;3.788;2023-02-19T03:44:26;10.73;;;2.33;;
27225;SDS011;14732;51.074;3.788;2023-02-19T03:47:19;14.23;;;2.63;;
27225;SDS011;14732;51.074;3.788;2023-02-19T03:49:57;14.35;;;2.30;;
27225;SDS011;14732;51.074;3.788;2023-02-19T03:55:21;17.30;;;2.38;;
27225;SDS011;14732;51.074;3.788;2023-02-19T03:58:10;13.10;;;2.70;;
27225;SDS011;14732;51.074;3.788;2023-02-19T04:05:54;13.02;;;2.22;;
27225;SDS011;14732;51.074;3.788;2023-02-19T04:08:26;15.45;;;2.78;;
27225;SDS011;14732;51.074;3.788;2023-02-19T04:10:54;13.18;;;2.15;;
27225;SDS011;14732;51.074;3.788;2023-02-19T04:13:32;12.32;;;1.92;;
27225;SDS011;14732;51.074;3.788;2023-02-19T04:16:03;15.93;;;2.17;;
27225;SDS011;14732;51.074;3.788;2023-02-19T04:18:35;23.85;;;2.97;;
27225;SDS011;14732;51.074;3.788;2023-02-19T04:21:04;16.50;;;2.22;;
27225;SDS011;14732;51.074;3.788;2023-02-19T04:23:32;15.90;;;2.30;;
27225;SDS011;14732;51.074;3.788;2023-02-19T04:26:03;11.68;;;1.98;;
27225;SDS011;14732;51.074;3.788;2023-02-19T04:28:32;12.00;;;2.10;;
27225;SDS011;14732;51.074;3.788;2023-02-19T04:30:58;13.13;;;2.22;;
27225;SDS011;14732;51.074;3.788;2023-02-19T04:33:23;15.52;;;2.25;;
27225;SDS011;14732;51.074;3.788;2023-02-19T04:35:49;13.27;;;2.15;;
27225;SDS011;14732;51.074;3.788;2023-02-19T04:38:15;17.10;;;2.90;;
27225;SDS011;14732;51.074;3.788;2023-02-19T04:40:41;13.75;;;2.10;;
27225;SDS011;14732;51.074;3.788;2023-02-19T04:43:06;16.20;;;2.10;;
27225;SDS011;14732;51.074;3.788;2023-02-19T04:45:32;16.60;;;2.58;;
27225;SDS011;14732;51.074;3.788;2023-02-19T04:47:58;16.77;;;1.95;;
27225;SDS011;14732;51.074;3.788;2023-02-19T04:50:24;14.63;;;2.28;;
27225;SDS011;14732;51.074;3.788;2023-02-19T04:52:50;15.00;;;2.20;;
27225;SDS011;14732;51.074;3.788;2023-02-19T04:55:15;14.05;;;2.58;;
27225;SDS011;14732;51.074;3.788;2023-02-19T04:57:41;13.90;;;2.20;;
27225;SDS011;14732;51.074;3.788;2023-02-19T05:00:07;17.63;;;2.88;;
27225;SDS011;14732;51.074;3.788;2023-02-19T05:02:34;14.23;;;2.47;;
27225;SDS011;14732;51.074;3.788;2023-02-19T05:05:00;17.42;;;2.47;;
27225;SDS011;14732;51.074;3.788;2023-02-19T05:07:25;15.80;;;2.38;;
27225;SDS011;14732;51.074;3.788;2023-02-19T05:09:51;15.65;;;2.33;;
27225;SDS011;14732;51.074;3.788;2023-02-19T05:12:17;15.77;;;2.10;;
27225;SDS011;14732;51.074;3.788;2023-02-19T05:14:42;13.05;;;2.03;;
27225;SDS011;14732;51.074;3.788;2023-02-19T05:17:08;15.10;;;1.90;;
27225;SDS011;14732;51.074;3.788;2023-02-19T05:19:34;16.17;;;2.03;;
27225;SDS011;14732;51.074;3.788;2023-02-19T05:21:59;19.35;;;2.42;;
27225;SDS011;14732;51.074;3.788;2023-02-19T05:24:25;8.77;;;1.92;;
27225;SDS011;14732;51.074;3.788;2023-02-19T05:26:52;15.57;;;2.10;;
27225;SDS011;14732;51.074;3.788;2023-02-19T05:29:17;11.98;;;1.88;;
27225;SDS011;14732;51.074;3.788;2023-02-19T05:31:43;13.48;;;2.38;;
27225;SDS011;14732;51.074;3.788;2023-02-19T05:34:09;11.23;;;2.03;;
27225;SDS011;14732;51.074;3.788;2023-02-19T05:36:34;10.32;;;2.08;;
27225;SDS011;14732;51.074;3.788;2023-02-19T05:39:01;14.13;;;1.92;;
27225;SDS011;14732;51.074;3.788;2023-02-19T05:41:28;12.90;;;2.22;;
27225;SDS011;14732;51.074;3.788;2023-02-19T05:43:54;10.20;;;1.80;;
27225;SDS011;14732;51.074;3.788;2023-02-19T05:46:22;13.85;;;1.75;;
27225;SDS011;14732;51.074;3.788;2023-02-19T05:48:50;11.75;;;1.83;;
27225;SDS011;14732;51.074;3.788;2023-02-19T05:51:17;10.85;;;1.95;;
27225;SDS011;14732;51.074;3.788;2023-02-19T05:53:45;10.07;;;1.88;;
27225;SDS011;14732;51.074;3.788;2023-02-19T05:56:31;8.88;;;1.95;;
27225;SDS011;14732;51.074;3.788;2023-02-19T05:58:59;18.05;;;2.63;;
27225;SDS011;14732;51.074;3.788;2023-02-19T06:01:28;11.93;;;2.00;;
27225;SDS011;14732;51.074;3.788;2023-02-19T06:03:54;10.30;;;1.50;;
27225;SDS011;14732;51.074;3.788;2023-02-19T06:06:20;13.15;;;1.95;;
27225;SDS011;14732;51.074;3.788;2023-02-19T06:08:49;16.58;;;2.30;;
27225;SDS011;14732;51.074;3.788;2023-02-19T06:11:15;8.63;;;1.73;;
27225;SDS011;14732;51.074;3.788;2023-02-19T06:13:41;9.10;;;1.67;;
27225;SDS011;14732;51.074;3.788;2023-02-19T06:16:08;13.57;;;1.85;;
27225;SDS011;14732;51.074;3.788;2023-02-19T06:18:34;8.77;;;2.00;;
27225;SDS011;14732;51.074;3.788;2023-02-19T06:21:00;16.23;;;2.22;;
27225;SDS011;14732;51.074;3.788;2023-02-19T06:23:27;16.80;;;2.22;;
27225;SDS011;14732;51.074;3.788;2023-02-19T06:25:53;15.10;;;2.00;;
27225;SDS011;14732;51.074;3.788;2023-02-19T06:28:19;13.05;;;1.85;;
27225;SDS011;14732;51.074;3.788;2023-02-19T06:30:44;13.55;;;2.00;;
27225;SDS011;14732;51.074;3.788;2023-02-19T06:33:10;13.65;;;1.80;;
27225;SDS011;14732;51.074;3.788;2023-02-19T06:35:35;13.73;;;1.80;;
27225;SDS011;14732;51.074;3.788;2023-02-19T06:38:01;15.52;;;1.90;;
27225;SDS011;14732;51.074;3.788;2023-02-19T06:40:27;11.70;;;1.75;;
27225;SDS011;14732;51.074;3.788;2023-02-19T06:42:53;10.70;;;1.88;;
27225;SDS011;14732;51.074;3.788;2023-02-19T06:45:19;9.82;;;2.08;;
27225;SDS011;14732;51.074;3.788;2023-02-19T06:47:48;11.57;;;1.77;;
27225;SDS011;14732;51.074;3.788;2023-02-19T06:50:19;14.98;;;1.85;;
27225;SDS011;14732;51.074;3.788;2023-02-19T06:52:44;10.32;;;1.45;;
27225;SDS011;14732;51.074;3.788;2023-02-19T06:55:10;11.07;;;2.00;;
27225;SDS011;14732;51.074;3.788;2023-02-19T06:57:36;9.20;;;1.92;;
27225;SDS011;14732;51.074;3.788;2023-02-19T07:00:01;7.40;;;1.55;;
27225;SDS011;14732;51.074;3.788;2023-02-19T07:02:28;7.40;;;1.92;;
27225;SDS011;14732;51.074;3.788;2023-02-19T07:04:54;14.93;;;1.67;;
27225;SDS011;14732;51.074;3.788;2023-02-19T07:07:19;9.55;;;1.58;;
27225;SDS011;14732;51.074;3.788;2023-02-19T07:09:45;8.93;;;1.55;;
27225;SDS011;14732;51.074;3.788;2023-02-19T07:12:11;12.05;;;1.92;;
27225;SDS011;14732;51.074;3.788;2023-02-19T07:14:37;13.25;;;1.80;;
27225;SDS011;14732;51.074;3.788;2023-02-19T07:17:02;12.00;;;1.85;;
27225;SDS011;14732;51.074;3.788;2023-02-19T07:19:28;8.52;;;1.98;;
27225;SDS011;14732;51.074;3.788;2023-02-19T07:21:54;13.25;;;1.85;;
27225;SDS011;14732;51.074;3.788;2023-02-19T07:24:19;13.07;;;2.08;;
27225;SDS011;14732;51.074;3.788;2023-02-19T07:26:46;12.18;;;2.05;;
27225;SDS011;14732;51.074;3.788;2023-02-19T07:29:12;17.20;;;2.17;;
27225;SDS011;14732;51.074;3.788;2023-02-19T07:31:37;9.20;;;2.08;;
27225;SDS011;14732;51.074;3.788;2023-02-19T07:34:03;12.88;;;2.22;;
27225;SDS011;14732;51.074;3.788;2023-02-19T07:36:29;11.02;;;2.33;;
27225;SDS011;14732;51.074;3.788;2023-02-19T07:38:55;9.85;;;1.80;;
27225;SDS011;14732;51.074;3.788;2023-02-19T07:41:22;17.33;;;2.25;;
27225;SDS011;14732;51.074;3.788;2023-02-19T07:43:48;12.57;;;1.80;;
27225;SDS011;14732;51.074;3.788;2023-02-19T07:46:14;12.15;;;1.90;;
27225;SDS011;14732;51.074;3.788;2023-02-19T07:48:40;14.10;;;2.08;;
27225;SDS011;14732;51.074;3.788;2023-02-19T07:51:09;9.32;;;1.67;;
27225;SDS011;14732;51.074;3.788;2023-02-19T07:53:42;16.27;;;2.30;;
27225;SDS011;14732;51.074;3.788;2023-02-19T07:56:12;11.85;;;2.28;;
27225;SDS011;14732;51.074;3.788;2023-02-19T07:58:38;11.15;;;1.50;;
27225;SDS011;14732;51.074;3.788;2023-02-19T08:01:13;14.57;;;2.00;;
27225;SDS011;14732;51.074;3.788;2023-02-19T08:03:41;12.27;;;2.15;;
27225;SDS011;14732;51.074;3.788;2023-02-19T08:06:07;18.02;;;2.78;;
27225;SDS011;14732;51.074;3.788;2023-02-19T08:08:35;11.57;;;1.92;;
27225;SDS011;14732;51.074;3.788;2023-02-19T08:11:01;13.27;;;2.17;;
27225;SDS011;14732;51.074;3.788;2023-02-19T08:13:47;11.85;;;2.45;;
27225;SDS011;14732;51.074;3.788;2023-02-19T08:16:14;10.90;;;1.83;;
27225;SDS011;14732;51.074;3.788;2023-02-19T08:18:42;12.18;;;2.05;;
27225;SDS011;14732;51.074;3.788;2023-02-19T08:21:09;8.77;;;2.10;;
27225;SDS011;14732;51.074;3.788;2023-02-19T08:23:35;13.98;;;2.13;;
27225;SDS011;14732;51.074;3.788;2023-02-19T08:26:01;12.80;;;2.05;;
27225;SDS011;14732;51.074;3.788;2023-02-19T08:28:28;9.52;;;1.90;;
27225;SDS011;14732;51.074;3.788;2023-02-19T08:30:57;9.13;;;1.88;;
27225;SDS011;14732;51.074;3.788;2023-02-19T08:33:28;12.98;;;1.98;;
27225;SDS011;14732;51.074;3.788;2023-02-19T08:35:54;9.20;;;1.70;;
27225;SDS011;14732;51.074;3.788;2023-02-19T08:38:20;13.40;;;1.70;;
27225;SDS011;14732;51.074;3.788;2023-02-19T08:40:46;8.23;;;1.73;;
27225;SDS011;14732;51.074;3.788;2023-02-19T08:43:13;11.75;;;2.10;;
27225;SDS011;14732;51.074;3.788;2023-02-19T08:45:41;10.05;;;1.75;;
27225;SDS011;14732;51.074;3.788;2023-02-19T08:48:08;8.55;;;1.60;;
27225;SDS011;14732;51.074;3.788;2023-02-19T08:50:35;12.15;;;1.73;;
27225;SDS011;14732;51.074;3.788;2023-02-19T08:53:02;8.30;;;1.45;;
27225;SDS011;14732;51.074;3.788;2023-02-19T08:55:28;8.35;;;1.65;;
27225;SDS011;14732;51.074;3.788;2023-02-19T08:57:54;10.77;;;1.60;;
27225;SDS011;14732;51.074;3.788;2023-02-19T09:00:20;10.40;;;1.60;;
27225;SDS011;14732;51.074;3.788;2023-02-19T09:02:46;10.07;;;1.75;;
27225;SDS011;14732;51.074;3.788;2023-02-19T09:05:12;9.20;;;1.50;;
27225;SDS011;14732;51.074;3.788;2023-02-19T09:07:39;7.25;;;1.40;;
27225;SDS011;14732;51.074;3.788;2023-02-19T09:10:05;10.32;;;1.67;;
27225;SDS011;14732;51.074;3.788;2023-02-19T09:12:31;7.60;;;1.60;;
27225;SDS011;14732;51.074;3.788;2023-02-19T09:14:58;8.35;;;1.70;;
27225;SDS011;14732;51.074;3.788;2023-02-19T09:17:24;10.27;;;1.70;;
27225;SDS011;14732;51.074;3.788;2023-02-19T09:19:50;11.35;;;2.65;;
27225;SDS011;14732;51.074;3.788;2023-02-19T09:22:16;10.10;;;2.60;;
27225;SDS011;14732;51.074;3.788;2023-02-19T09:24:42;9.52;;;1.90;;
27225;SDS011;14732;51.074;3.788;2023-02-19T09:27:08;13.05;;;1.63;;
27225;SDS011;14732;51.074;3.788;2023-02-19T09:29:40;8.68;;;1.83;;
27225;SDS011;14732;51.074;3.788;2023-02-19T09:32:05;11.27;;;1.85;;
27225;SDS011;14732;51.074;3.788;2023-02-19T09:34:31;12.15;;;2.00;;
27225;SDS011;14732;51.074;3.788;2023-02-19T09:36:56;11.25;;;1.80;;
27225;SDS011;14732;51.074;3.788;2023-02-19T09:39:22;9.77;;;1.90;;
27225;SDS011;14732;51.074;3.788;2023-02-19T09:41:48;8.35;;;1.95;;
27225;SDS011;14732;51.074;3.788;2023-02-19T09:44:23;7.65;;;1.70;;
27225;SDS011;14732;51.074;3.788;2023-02-19T09:46:54;11.65;;;2.17;;
27225;SDS011;14732;51.074;3.788;2023-02-19T09:49:32;10.40;;;1.80;;
27225;SDS011;14732;51.074;3.788;2023-02-19T09:52:14;9.38;;;1.75;;
27225;SDS011;14732;51.074;3.788;2023-02-19T09:54:51;9.70;;;1.85;;
27225;SDS011;14732;51.074;3.788;2023-02-19T09:57:21;8.55;;;1.95;;
27225;SDS011;14732;51.074;3.788;2023-02-19T10:00:31;9.15;;;1.83;;
27225;SDS011;14732;51.074;3.788;2023-02-19T10:02:38;9.73;;;2.05;;
27225;SDS011;14732;51.074;3.788;2023-02-19T10:05:13;7.68;;;1.60;;
27225;SDS011;14732;51.074;3.788;2023-02-19T10:07:45;7.22;;;2.00;;
27225;SDS011;14732;51.074;3.788;2023-02-19T10:12:45;12.77;;;1.83;;
27225;SDS011;14732;51.074;3.788;2023-02-19T10:18:07;10.52;;;2.33;;
27225;SDS011;14732;51.074;3.788;2023-02-19T10:20:33;10.43;;;2.38;;
27225;SDS011;14732;51.074;3.788;2023-02-19T10:23:01;8.68;;;1.73;;
27225;SDS011;14732;51.074;3.788;2023-02-19T10:27:59;8.10;;;2.47;;
27225;SDS011;14732;51.074;3.788;2023-02-19T10:30:30;9.57;;;2.50;;
27225;SDS011;14732;51.074;3.788;2023-02-19T10:32:59;11.63;;;2.42;;
27225;SDS011;14732;51.074;3.788;2023-02-19T10:35:34;10.27;;;2.58;;
27225;SDS011;14732;51.074;3.788;2023-02-19T10:38:01;7.78;;;2.10;;
27225;SDS011;14732;51.074;3.788;2023-02-19T10:40:30;14.65;;;2.75;;
27225;SDS011;14732;51.074;3.788;2023-02-19T10:43:00;11.88;;;2.20;;
27225;SDS011;14732;51.074;3.788;2023-02-19T10:48:05;9.48;;;2.58;;
27225;SDS011;14732;51.074;3.788;2023-02-19T10:50:45;10.80;;;2.22;;
27225;SDS011;14732;51.074;3.788;2023-02-19T10:53:22;8.77;;;2.22;;
27225;SDS011;14732;51.074;3.788;2023-02-19T10:56:09;6.13;;;1.95;;
27225;SDS011;14732;51.074;3.788;2023-02-19T10:58:38;10.90;;;1.98;;
27225;SDS011;14732;51.074;3.788;2023-02-19T11:01:09;7.35;;;1.83;;
27225;SDS011;14732;51.074;3.788;2023-02-19T11:03:35;5.65;;;2.08;;
27225;SDS011;14732;51.074;3.788;2023-02-19T11:06:02;9.05;;;2.10;;
27225;SDS011;14732;51.074;3.788;2023-02-19T11:08:48;4.55;;;1.45;;
27225;SDS011;14732;51.074;3.788;2023-02-19T11:11:28;7.47;;;1.70;;
27225;SDS011;14732;51.074;3.788;2023-02-19T11:14:11;9.45;;;2.05;;
27225;SDS011;14732;51.074;3.788;2023-02-19T11:17:16;10.55;;;2.17;;
27225;SDS011;14732;51.074;3.788;2023-02-19T11:19:44;4.85;;;1.48;;
27225;SDS011;14732;51.074;3.788;2023-02-19T11:24:51;3.28;;;1.17;;
27225;SDS011;14732;51.074;3.788;2023-02-19T11:27:18;7.80;;;1.90;;
27225;SDS011;14732;51.074;3.788;2023-02-19T11:29:46;5.82;;;1.45;;
27225;SDS011;14732;51.074;3.788;2023-02-19T11:32:16;4.60;;;1.67;;
27225;SDS011;14732;51.074;3.788;2023-02-19T11:37:54;3.20;;;1.58;;
27225;SDS011;14732;51.074;3.788;2023-02-19T11:40:22;5.65;;;1.63;;
27225;SDS011;14732;51.074;3.788;2023-02-19T11:46:20;9.27;;;2.15;;
27225;SDS011;14732;51.074;3.788;2023-02-19T11:54:17;5.72;;;2.00;;
27225;SDS011;14732;51.074;3.788;2023-02-19T11:56:54;6.40;;;1.60;;
27225;SDS011;14732;51.074;3.788;2023-02-19T11:59:44;4.28;;;1.75;;
27225;SDS011;14732;51.074;3.788;2023-02-19T12:10:21;7.32;;;1.77;;
27225;SDS011;14732;51.074;3.788;2023-02-19T12:18:57;5.18;;;1.50;;
27225;SDS011;14732;51.074;3.788;2023-02-19T12:21:57;3.28;;;1.10;;
27225;SDS011;14732;51.074;3.788;2023-02-19T12:35:22;7.22;;;1.45;;
27225;SDS011;14732;51.074;3.788;2023-02-19T12:38:10;5.40;;;1.48;;
27225;SDS011;14732;51.074;3.788;2023-02-19T12:41:17;5.38;;;1.40;;
27225;SDS011;14732;51.074;3.788;2023-02-19T12:43:56;6.45;;;1.60;;
27225;SDS011;14732;51.074;3.788;2023-02-19T12:49:11;4.57;;;1.60;;
27225;SDS011;14732;51.074;3.788;2023-02-19T12:51:59;3.55;;;1.50;;
27225;SDS011;14732;51.074;3.788;2023-02-19T12:54:34;7.38;;;1.90;;
27225;SDS011;14732;51.074;3.788;2023-02-19T12:57:09;3.90;;;1.80;;
27225;SDS011;14732;51.074;3.788;2023-02-19T13:00:23;3.40;;;2.05;;
27225;SDS011;14732;51.074;3.788;2023-02-19T13:03:19;7.75;;;2.60;;
27225;SDS011;14732;51.074;3.788;2023-02-19T13:08:18;2.85;;;1.50;;
27225;SDS011;14732;51.074;3.788;2023-02-19T13:10:46;8.45;;;4.68;;
27225;SDS011;14732;51.074;3.788;2023-02-19T13:13:24;3.03;;;1.48;;
27225;SDS011;14732;51.074;3.788;2023-02-19T13:16:06;5.43;;;1.50;;
27225;SDS011;14732;51.074;3.788;2023-02-19T13:18:42;2.90;;;1.60;;
27225;SDS011;14732;51.074;3.788;2023-02-19T13:21:11;5.20;;;1.52;;
27225;SDS011;14732;51.074;3.788;2023-02-19T13:23:59;4.80;;;1.50;;
27225;SDS011;14732;51.074;3.788;2023-02-19T13:29:22;5.57;;;2.38;;
27225;SDS011;14732;51.074;3.788;2023-02-19T13:37:18;6.15;;;2.00;;
27225;SDS011;14732;51.074;3.788;2023-02-19T13:39:45;2.55;;;2.08;;
27225;SDS011;14732;51.074;3.788;2023-02-19T13:42:23;3.95;;;2.10;;
27225;SDS011;14732;51.074;3.788;2023-02-19T13:44:56;8.05;;;2.70;;
27225;SDS011;14732;51.074;3.788;2023-02-19T13:50:24;3.55;;;2.03;;
27225;SDS011;14732;51.074;3.788;2023-02-19T13:52:55;5.63;;;2.47;;
27225;SDS011;14732;51.074;3.788;2023-02-19T14:01:01;7.78;;;3.05;;
27225;SDS011;14732;51.074;3.788;2023-02-19T14:06:12;5.93;;;3.20;;
27225;SDS011;14732;51.074;3.788;2023-02-19T14:08:52;7.32;;;3.30;;
27225;SDS011;14732;51.074;3.788;2023-02-19T14:36:13;6.28;;;3.20;;
27225;SDS011;14732;51.074;3.788;2023-02-19T14:39:01;8.27;;;3.15;;
27225;SDS011;14732;51.074;3.788;2023-02-19T14:41:36;9.52;;;3.80;;
27225;SDS011;14732;51.074;3.788;2023-02-19T14:44:05;8.18;;;3.40;;
27225;SDS011;14732;51.074;3.788;2023-02-19T14:46:47;5.07;;;3.00;;
27225;SDS011;14732;51.074;3.788;2023-02-19T14:49:23;5.93;;;3.22;;
27225;SDS011;14732;51.074;3.788;2023-02-19T14:51:57;6.07;;;3.27;;
27225;SDS011;14732;51.074;3.788;2023-02-19T14:54:44;6.85;;;3.33;;
27225;SDS011;14732;51.074;3.788;2023-02-19T14:57:42;5.13;;;2.78;;
27225;SDS011;14732;51.074;3.788;2023-02-19T15:00:22;7.22;;;2.80;;
27225;SDS011;14732;51.074;3.788;2023-02-19T15:02:48;7.03;;;3.50;;
27225;SDS011;14732;51.074;3.788;2023-02-19T15:05:21;6.65;;;3.40;;
27225;SDS011;14732;51.074;3.788;2023-02-19T15:07:49;5.50;;;3.55;;
27225;SDS011;14732;51.074;3.788;2023-02-19T15:10:20;8.43;;;3.00;;
27225;SDS011;14732;51.074;3.788;2023-02-19T15:15:24;7.68;;;3.90;;
27225;SDS011;14732;51.074;3.788;2023-02-19T15:17:53;6.07;;;3.50;;
27225;SDS011;14732;51.074;3.788;2023-02-19T15:20:30;11.65;;;4.32;;
27225;SDS011;14732;51.074;3.788;2023-02-19T15:22:59;7.10;;;3.87;;
27225;SDS011;14732;51.074;3.788;2023-02-19T15:25:30;8.70;;;3.50;;
27225;SDS011;14732;51.074;3.788;2023-02-19T15:31:04;8.05;;;3.20;;
27225;SDS011;14732;51.074;3.788;2023-02-19T15:33:31;7.45;;;3.47;;
27225;SDS011;14732;51.074;3.788;2023-02-19T15:36:08;6.93;;;3.33;;
27225;SDS011;14732;51.074;3.788;2023-02-19T15:38:37;5.00;;;3.05;;
27225;SDS011;14732;51.074;3.788;2023-02-19T15:41:03;10.70;;;3.30;;
27225;SDS011;14732;51.074;3.788;2023-02-19T15:46:04;6.90;;;3.13;;
27225;SDS011;14732;51.074;3.788;2023-02-19T15:48:40;5.35;;;3.60;;
27225;SDS011;14732;51.074;3.788;2023-02-19T15:51:20;8.25;;;3.55;;
27225;SDS011;14732;51.074;3.788;2023-02-19T15:53:50;3.90;;;2.85;;
27225;SDS011;14732;51.074;3.788;2023-02-19T15:56:26;6.07;;;2.97;;
27225;SDS011;14732;51.074;3.788;2023-02-19T16:01:36;5.93;;;3.20;;
27225;SDS011;14732;51.074;3.788;2023-02-19T16:04:07;8.75;;;3.45;;
27225;SDS011;14732;51.074;3.788;2023-02-19T16:06:56;7.57;;;3.70;;
27225;SDS011;14732;51.074;3.788;2023-02-19T16:09:34;9.40;;;4.45;;
27225;SDS011;14732;51.074;3.788;2023-02-19T16:12:02;7.63;;;3.28;;
27225;SDS011;14732;51.074;3.788;2023-02-19T16:14:49;5.45;;;3.28;;
27225;SDS011;14732;51.074;3.788;2023-02-19T16:17:15;5.10;;;3.08;;
27225;SDS011;14732;51.074;3.788;2023-02-19T16:19:51;6.47;;;2.92;;
27225;SDS011;14732;51.074;3.788;2023-02-19T16:22:20;11.43;;;3.50;;
27225;SDS011;14732;51.074;3.788;2023-02-19T16:24:52;9.38;;;3.53;;
27225;SDS011;14732;51.074;3.788;2023-02-19T16:27:37;6.03;;;2.75;;
27225;SDS011;14732;51.074;3.788;2023-02-19T16:32:43;8.13;;;4.10;;
27225;SDS011;14732;51.074;3.788;2023-02-19T16:38:12;12.20;;;3.10;;
27225;SDS011;14732;51.074;3.788;2023-02-19T16:45:41;4.68;;;2.78;;
27225;SDS011;14732;51.074;3.788;2023-02-19T16:48:08;9.63;;;2.83;;
27225;SDS011;14732;51.074;3.788;2023-02-19T16:50:34;5.10;;;2.70;;
27225;SDS011;14732;51.074;3.788;2023-02-19T16:53:01;9.18;;;2.97;;
27225;SDS011;14732;51.074;3.788;2023-02-19T16:55:28;6.30;;;2.60;;
27225;SDS011;14732;51.074;3.788;2023-02-19T16:57:56;5.93;;;2.42;;
27225;SDS011;14732;51.074;3.788;2023-02-19T17:00:26;8.85;;;2.70;;
27225;SDS011;14732;51.074;3.788;2023-02-19T17:02:58;5.70;;;3.22;;
27225;SDS011;14732;51.074;3.788;2023-02-19T17:05:27;5.15;;;3.20;;
27225;SDS011;14732;51.074;3.788;2023-02-19T17:07:56;5.13;;;2.70;;
27225;SDS011;14732;51.074;3.788;2023-02-19T17:10:23;5.03;;;2.20;;
27225;SDS011;14732;51.074;3.788;2023-02-19T17:12:50;7.50;;;2.75;;
27225;SDS011;14732;51.074;3.788;2023-02-19T17:15:18;7.05;;;2.95;;
27225;SDS011;14732;51.074;3.788;2023-02-19T17:17:43;8.25;;;2.75;;
27225;SDS011;14732;51.074;3.788;2023-02-19T17:20:17;5.07;;;2.70;;
27225;SDS011;14732;51.074;3.788;2023-02-19T17:22:48;5.75;;;2.55;;
27225;SDS011;14732;51.074;3.788;2023-02-19T17:25:13;6.07;;;3.58;;
27225;SDS011;14732;51.074;3.788;2023-02-19T17:27:39;9.82;;;3.63;;
27225;SDS011;14732;51.074;3.788;2023-02-19T17:30:09;8.10;;;3.40;;
27225;SDS011;14732;51.074;3.788;2023-02-19T17:32:49;7.82;;;3.28;;